sensor_id;sensor_type;location;lat;lon;timestamp;P1;durP1;ratioP1;P2;durP2;ratioP2
33206;SDS011;19565;46.602;11.534;2022-10-13T00:00:54;1.58;;;1.48;;
33206;SDS011;19565;46.602;11.534;2022-10-13T00:03:22;1.13;;;1.00;;
33206;SDS011;19565;46.602;11.534;2022-10-13T00:05:50;1.50;;;1.40;;
33206;SDS011;19565;46.602;11.534;2022-10-13T00:08:19;2.67;;;2.47;;
33206;SDS011;19565;46.602;11.534;2022-10-13T00:10:49;0.87;;;0.87;;
33206;SDS011;19565;46.602;11.534;2022-10-13T00:13:18;1.00;;;1.00;;
33206;SDS011;19565;46.602;11.534;2022-10-13T00:15:47;0.70;;;0.70;;
33206;SDS011;19565;46.602;11.534;2022-10-13T00:18:16;1.57;;;1.47;;
33206;SDS011;19565;46.602;11.534;2022-10-13T00:20:45;1.37;;;0.80;;
33206;SDS011;19565;46.602;11.534;2022-10-13T00:23:15;2.77;;;1.43;;
33206;SDS011;19565;46.602;11.534;2022-10-13T00:25:45;2.90;;;2.13;;
33206;SDS011;19565;46.602;11.534;2022-10-13T00:28:14;1.17;;;1.10;;
33206;SDS011;19565;46.602;11.534;2022-10-13T00:30:45;1.47;;;1.37;;
33206;SDS011;19565;46.602;11.534;2022-10-13T00:33:13;3.55;;;0.98;;
33206;SDS011;19565;46.602;11.534;2022-10-13T00:35:44;1.70;;;1.33;;
33206;SDS011;19565;46.602;11.534;2022-10-13T00:38:13;0.77;;;0.77;;
33206;SDS011;19565;46.602;11.534;2022-10-13T00:40:43;2.00;;;1.52;;
33206;SDS011;19565;46.602;11.534;2022-10-13T00:43:14;1.77;;;1.63;;
33206;SDS011;19565;46.602;11.534;2022-10-13T00:45:44;3.22;;;1.52;;
33206;SDS011;19565;46.602;11.534;2022-10-13T00:48:15;1.45;;;1.35;;
33206;SDS011;19565;46.602;11.534;2022-10-13T00:50:46;1.55;;;1.45;;
33206;SDS011;19565;46.602;11.534;2022-10-13T00:53:17;2.10;;;1.70;;
33206;SDS011;19565;46.602;11.534;2022-10-13T00:55:50;1.60;;;1.08;;
33206;SDS011;19565;46.602;11.534;2022-10-13T00:58:20;2.38;;;1.75;;
33206;SDS011;19565;46.602;11.534;2022-10-13T01:00:50;0.77;;;0.77;;
33206;SDS011;19565;46.602;11.534;2022-10-13T01:03:19;1.00;;;0.82;;
33206;SDS011;19565;46.602;11.534;2022-10-13T01:05:50;2.17;;;1.52;;
33206;SDS011;19565;46.602;11.534;2022-10-13T01:08:21;1.67;;;1.33;;
33206;SDS011;19565;46.602;11.534;2022-10-13T01:10:54;6.43;;;3.78;;
33206;SDS011;19565;46.602;11.534;2022-10-13T01:13:30;0.88;;;0.88;;
33206;SDS011;19565;46.602;11.534;2022-10-13T01:16:06;2.85;;;2.65;;
33206;SDS011;19565;46.602;11.534;2022-10-13T01:18:41;4.13;;;1.55;;
33206;SDS011;19565;46.602;11.534;2022-10-13T01:21:21;1.88;;;1.70;;
33206;SDS011;19565;46.602;11.534;2022-10-13T01:32:42;2.10;;;1.65;;
33206;SDS011;19565;46.602;11.534;2022-10-13T01:35:28;2.55;;;1.35;;
33206;SDS011;19565;46.602;11.534;2022-10-13T01:38:04;3.85;;;2.35;;
33206;SDS011;19565;46.602;11.534;2022-10-13T01:40:37;1.15;;;1.05;;
33206;SDS011;19565;46.602;11.534;2022-10-13T01:43:13;1.33;;;1.27;;
33206;SDS011;19565;46.602;11.534;2022-10-13T01:45:49;2.25;;;1.92;;
33206;SDS011;19565;46.602;11.534;2022-10-13T01:48:20;0.95;;;0.95;;
33206;SDS011;19565;46.602;11.534;2022-10-13T01:50:49;3.42;;;1.15;;
33206;SDS011;19565;46.602;11.534;2022-10-13T01:53:18;3.03;;;1.50;;
33206;SDS011;19565;46.602;11.534;2022-10-13T01:55:48;1.35;;;1.17;;
33206;SDS011;19565;46.602;11.534;2022-10-13T01:58:17;3.20;;;2.15;;
33206;SDS011;19565;46.602;11.534;2022-10-13T02:00:49;1.98;;;1.60;;
33206;SDS011;19565;46.602;11.534;2022-10-13T02:03:29;2.25;;;1.95;;
33206;SDS011;19565;46.602;11.534;2022-10-13T02:06:12;0.95;;;0.95;;
33206;SDS011;19565;46.602;11.534;2022-10-13T02:08:50;5.90;;;1.23;;
33206;SDS011;19565;46.602;11.534;2022-10-13T02:11:23;1.70;;;1.60;;
33206;SDS011;19565;46.602;11.534;2022-10-13T02:13:52;4.38;;;2.35;;
33206;SDS011;19565;46.602;11.534;2022-10-13T02:16:28;2.70;;;1.52;;
33206;SDS011;19565;46.602;11.534;2022-10-13T02:19:02;1.85;;;1.63;;
33206;SDS011;19565;46.602;11.534;2022-10-13T02:21:31;1.60;;;1.05;;
33206;SDS011;19565;46.602;11.534;2022-10-13T02:24:00;1.92;;;1.60;;
33206;SDS011;19565;46.602;11.534;2022-10-13T02:26:29;1.60;;;1.27;;
33206;SDS011;19565;46.602;11.534;2022-10-13T02:28:58;2.97;;;2.53;;
33206;SDS011;19565;46.602;11.534;2022-10-13T02:31:28;0.70;;;0.70;;
33206;SDS011;19565;46.602;11.534;2022-10-13T02:33:55;1.55;;;1.35;;
33206;SDS011;19565;46.602;11.534;2022-10-13T02:36:24;0.93;;;0.88;;
33206;SDS011;19565;46.602;11.534;2022-10-13T02:38:52;5.25;;;1.10;;
33206;SDS011;19565;46.602;11.534;2022-10-13T02:41:19;2.17;;;1.77;;
33206;SDS011;19565;46.602;11.534;2022-10-13T02:43:47;1.58;;;1.48;;
33206;SDS011;19565;46.602;11.534;2022-10-13T02:46:15;1.35;;;1.20;;
33206;SDS011;19565;46.602;11.534;2022-10-13T02:48:45;31.90;;;30.25;;
33206;SDS011;19565;46.602;11.534;2022-10-13T02:51:13;4.20;;;2.65;;
33206;SDS011;19565;46.602;11.534;2022-10-13T02:53:41;4.53;;;3.03;;
33206;SDS011;19565;46.602;11.534;2022-10-13T02:56:09;2.72;;;2.53;;
33206;SDS011;19565;46.602;11.534;2022-10-13T02:58:37;2.50;;;2.40;;
33206;SDS011;19565;46.602;11.534;2022-10-13T03:01:05;9.82;;;3.05;;
33206;SDS011;19565;46.602;11.534;2022-10-13T03:03:34;2.53;;;2.42;;
33206;SDS011;19565;46.602;11.534;2022-10-13T03:06:05;3.25;;;3.05;;
33206;SDS011;19565;46.602;11.534;2022-10-13T03:08:34;3.35;;;3.05;;
33206;SDS011;19565;46.602;11.534;2022-10-13T03:11:02;2.08;;;1.98;;
33206;SDS011;19565;46.602;11.534;2022-10-13T03:13:30;2.08;;;1.98;;
33206;SDS011;19565;46.602;11.534;2022-10-13T03:15:58;2.75;;;2.50;;
33206;SDS011;19565;46.602;11.534;2022-10-13T03:18:26;3.72;;;3.42;;
33206;SDS011;19565;46.602;11.534;2022-10-13T03:20:55;2.92;;;2.72;;
33206;SDS011;19565;46.602;11.534;2022-10-13T03:23:26;3.10;;;2.40;;
33206;SDS011;19565;46.602;11.534;2022-10-13T03:25:54;3.85;;;3.55;;
33206;SDS011;19565;46.602;11.534;2022-10-13T03:28:22;3.35;;;3.05;;
33206;SDS011;19565;46.602;11.534;2022-10-13T03:30:52;2.50;;;2.40;;
33206;SDS011;19565;46.602;11.534;2022-10-13T03:33:27;12.30;;;3.58;;
33206;SDS011;19565;46.602;11.534;2022-10-13T03:35:56;2.45;;;2.35;;
33206;SDS011;19565;46.602;11.534;2022-10-13T03:38:26;3.17;;;3.00;;
33206;SDS011;19565;46.602;11.534;2022-10-13T03:40:55;1.15;;;1.10;;
33206;SDS011;19565;46.602;11.534;2022-10-13T03:43:23;0.95;;;0.85;;
33206;SDS011;19565;46.602;11.534;2022-10-13T03:45:54;2.15;;;1.95;;
33206;SDS011;19565;46.602;11.534;2022-10-13T03:48:23;1.45;;;1.35;;
33206;SDS011;19565;46.602;11.534;2022-10-13T03:50:51;0.70;;;0.70;;
33206;SDS011;19565;46.602;11.534;2022-10-13T03:53:19;3.42;;;1.77;;
33206;SDS011;19565;46.602;11.534;2022-10-13T03:55:49;1.88;;;1.15;;
33206;SDS011;19565;46.602;11.534;2022-10-13T03:58:18;0.75;;;0.75;;
33206;SDS011;19565;46.602;11.534;2022-10-13T04:00:47;2.58;;;2.08;;
33206;SDS011;19565;46.602;11.534;2022-10-13T04:03:16;1.67;;;1.30;;
33206;SDS011;19565;46.602;11.534;2022-10-13T04:05:44;2.25;;;1.80;;
33206;SDS011;19565;46.602;11.534;2022-10-13T04:08:13;0.80;;;0.80;;
33206;SDS011;19565;46.602;11.534;2022-10-13T04:10:41;0.75;;;0.75;;
33206;SDS011;19565;46.602;11.534;2022-10-13T04:13:10;1.90;;;1.17;;
33206;SDS011;19565;46.602;11.534;2022-10-13T04:15:38;0.93;;;0.93;;
33206;SDS011;19565;46.602;11.534;2022-10-13T04:18:07;1.55;;;1.45;;
33206;SDS011;19565;46.602;11.534;2022-10-13T04:20:36;1.92;;;1.02;;
33206;SDS011;19565;46.602;11.534;2022-10-13T04:23:05;0.90;;;0.90;;
33206;SDS011;19565;46.602;11.534;2022-10-13T04:25:33;1.80;;;0.93;;
33206;SDS011;19565;46.602;11.534;2022-10-13T04:28:02;1.50;;;1.20;;
33206;SDS011;19565;46.602;11.534;2022-10-13T04:30:32;2.40;;;2.20;;
33206;SDS011;19565;46.602;11.534;2022-10-13T04:33:01;2.15;;;2.05;;
33206;SDS011;19565;46.602;11.534;2022-10-13T04:35:29;0.82;;;0.77;;
33206;SDS011;19565;46.602;11.534;2022-10-13T04:37:57;1.67;;;1.58;;
33206;SDS011;19565;46.602;11.534;2022-10-13T04:40:25;1.13;;;1.05;;
33206;SDS011;19565;46.602;11.534;2022-10-13T04:42:53;5.20;;;1.40;;
33206;SDS011;19565;46.602;11.534;2022-10-13T04:45:21;2.35;;;2.13;;
33206;SDS011;19565;46.602;11.534;2022-10-13T04:47:51;8.00;;;3.17;;
33206;SDS011;19565;46.602;11.534;2022-10-13T04:50:19;1.25;;;1.20;;
33206;SDS011;19565;46.602;11.534;2022-10-13T04:52:47;1.58;;;1.13;;
33206;SDS011;19565;46.602;11.534;2022-10-13T04:55:15;1.55;;;1.45;;
33206;SDS011;19565;46.602;11.534;2022-10-13T04:57:43;3.03;;;1.65;;
33206;SDS011;19565;46.602;11.534;2022-10-13T05:00:11;2.65;;;2.20;;
33206;SDS011;19565;46.602;11.534;2022-10-13T05:02:40;9.32;;;8.88;;
33206;SDS011;19565;46.602;11.534;2022-10-13T05:05:09;2.25;;;2.15;;
33206;SDS011;19565;46.602;11.534;2022-10-13T05:07:37;2.42;;;2.22;;
33206;SDS011;19565;46.602;11.534;2022-10-13T05:10:06;3.42;;;3.22;;
33206;SDS011;19565;46.602;11.534;2022-10-13T05:12:34;2.70;;;2.50;;
33206;SDS011;19565;46.602;11.534;2022-10-13T05:15:02;2.60;;;2.45;;
33206;SDS011;19565;46.602;11.534;2022-10-13T05:17:31;2.45;;;2.25;;
33206;SDS011;19565;46.602;11.534;2022-10-13T05:20:01;3.78;;;2.25;;
33206;SDS011;19565;46.602;11.534;2022-10-13T05:22:32;5.75;;;1.70;;
33206;SDS011;19565;46.602;11.534;2022-10-13T05:25:00;1.17;;;1.10;;
33206;SDS011;19565;46.602;11.534;2022-10-13T05:27:28;1.17;;;1.08;;
33206;SDS011;19565;46.602;11.534;2022-10-13T05:29:56;4.13;;;1.23;;
33206;SDS011;19565;46.602;11.534;2022-10-13T05:32:24;4.10;;;1.53;;
33206;SDS011;19565;46.602;11.534;2022-10-13T05:34:52;1.37;;;1.20;;
33206;SDS011;19565;46.602;11.534;2022-10-13T05:37:20;1.23;;;1.13;;
33206;SDS011;19565;46.602;11.534;2022-10-13T05:39:50;1.63;;;1.52;;
33206;SDS011;19565;46.602;11.534;2022-10-13T05:42:18;1.13;;;1.02;;
33206;SDS011;19565;46.602;11.534;2022-10-13T05:44:46;1.45;;;1.35;;
33206;SDS011;19565;46.602;11.534;2022-10-13T05:47:15;1.35;;;1.25;;
33206;SDS011;19565;46.602;11.534;2022-10-13T05:49:43;0.73;;;0.73;;
33206;SDS011;19565;46.602;11.534;2022-10-13T05:52:11;0.75;;;0.73;;
33206;SDS011;19565;46.602;11.534;2022-10-13T05:54:39;3.45;;;1.58;;
33206;SDS011;19565;46.602;11.534;2022-10-13T05:57:14;1.30;;;1.20;;
33206;SDS011;19565;46.602;11.534;2022-10-13T05:59:46;1.50;;;1.40;;
33206;SDS011;19565;46.602;11.534;2022-10-13T06:02:17;1.77;;;1.38;;
33206;SDS011;19565;46.602;11.534;2022-10-13T06:04:49;0.90;;;0.90;;
33206;SDS011;19565;46.602;11.534;2022-10-13T06:07:19;2.80;;;2.38;;
33206;SDS011;19565;46.602;11.534;2022-10-13T06:09:47;1.35;;;1.25;;
33206;SDS011;19565;46.602;11.534;2022-10-13T06:12:17;1.75;;;1.65;;
33206;SDS011;19565;46.602;11.534;2022-10-13T06:14:45;3.08;;;1.95;;
33206;SDS011;19565;46.602;11.534;2022-10-13T06:17:14;1.08;;;1.00;;
33206;SDS011;19565;46.602;11.534;2022-10-13T06:19:42;0.80;;;0.80;;
33206;SDS011;19565;46.602;11.534;2022-10-13T06:22:11;5.18;;;1.30;;
33206;SDS011;19565;46.602;11.534;2022-10-13T06:24:39;0.82;;;0.82;;
33206;SDS011;19565;46.602;11.534;2022-10-13T06:27:07;1.63;;;1.52;;
33206;SDS011;19565;46.602;11.534;2022-10-13T06:29:36;3.05;;;2.15;;
33206;SDS011;19565;46.602;11.534;2022-10-13T06:32:05;1.10;;;1.08;;
33206;SDS011;19565;46.602;11.534;2022-10-13T06:34:33;1.75;;;1.65;;
33206;SDS011;19565;46.602;11.534;2022-10-13T06:37:01;1.13;;;1.13;;
33206;SDS011;19565;46.602;11.534;2022-10-13T06:39:29;2.83;;;2.38;;
33206;SDS011;19565;46.602;11.534;2022-10-13T06:41:57;2.20;;;1.63;;
33206;SDS011;19565;46.602;11.534;2022-10-13T06:44:25;2.35;;;1.40;;
33206;SDS011;19565;46.602;11.534;2022-10-13T06:46:54;1.55;;;1.33;;
33206;SDS011;19565;46.602;11.534;2022-10-13T06:49:22;1.25;;;1.20;;
33206;SDS011;19565;46.602;11.534;2022-10-13T06:51:51;3.47;;;1.83;;
33206;SDS011;19565;46.602;11.534;2022-10-13T06:54:19;1.52;;;1.38;;
33206;SDS011;19565;46.602;11.534;2022-10-13T06:56:47;1.85;;;1.70;;
33206;SDS011;19565;46.602;11.534;2022-10-13T06:59:16;1.15;;;1.02;;
33206;SDS011;19565;46.602;11.534;2022-10-13T07:01:44;1.63;;;1.53;;
33206;SDS011;19565;46.602;11.534;2022-10-13T07:04:15;4.27;;;2.20;;
33206;SDS011;19565;46.602;11.534;2022-10-13T07:06:43;2.57;;;1.93;;
33206;SDS011;19565;46.602;11.534;2022-10-13T07:09:11;2.57;;;1.90;;
33206;SDS011;19565;46.602;11.534;2022-10-13T07:11:39;3.30;;;2.50;;
33206;SDS011;19565;46.602;11.534;2022-10-13T07:14:10;2.07;;;1.17;;
33206;SDS011;19565;46.602;11.534;2022-10-13T07:16:38;2.30;;;1.30;;
33206;SDS011;19565;46.602;11.534;2022-10-13T07:19:09;2.30;;;2.00;;
33206;SDS011;19565;46.602;11.534;2022-10-13T07:21:39;2.73;;;2.03;;
33206;SDS011;19565;46.602;11.534;2022-10-13T07:24:08;2.57;;;1.87;;
33206;SDS011;19565;46.602;11.534;2022-10-13T07:26:37;2.00;;;1.53;;
33206;SDS011;19565;46.602;11.534;2022-10-13T07:29:05;1.17;;;1.17;;
33206;SDS011;19565;46.602;11.534;2022-10-13T07:31:34;1.10;;;1.00;;
33206;SDS011;19565;46.602;11.534;2022-10-13T07:34:02;0.80;;;0.80;;
33206;SDS011;19565;46.602;11.534;2022-10-13T07:36:35;1.63;;;1.23;;
33206;SDS011;19565;46.602;11.534;2022-10-13T07:39:07;1.17;;;1.03;;
33206;SDS011;19565;46.602;11.534;2022-10-13T07:41:36;2.13;;;1.37;;
33206;SDS011;19565;46.602;11.534;2022-10-13T07:44:04;2.13;;;1.67;;
33206;SDS011;19565;46.602;11.534;2022-10-13T07:46:32;2.93;;;1.77;;
33206;SDS011;19565;46.602;11.534;2022-10-13T07:49:00;3.33;;;1.77;;
33206;SDS011;19565;46.602;11.534;2022-10-13T07:51:28;1.60;;;1.50;;
33206;SDS011;19565;46.602;11.534;2022-10-13T07:53:56;1.53;;;1.37;;
33206;SDS011;19565;46.602;11.534;2022-10-13T07:56:25;1.70;;;1.60;;
33206;SDS011;19565;46.602;11.534;2022-10-13T07:58:53;1.73;;;1.63;;
33206;SDS011;19565;46.602;11.534;2022-10-13T08:01:22;2.37;;;2.17;;
33206;SDS011;19565;46.602;11.534;2022-10-13T08:03:53;1.80;;;1.70;;
33206;SDS011;19565;46.602;11.534;2022-10-13T08:06:22;2.33;;;2.13;;
33206;SDS011;19565;46.602;11.534;2022-10-13T08:08:50;4.97;;;2.97;;
33206;SDS011;19565;46.602;11.534;2022-10-13T08:11:19;1.80;;;1.63;;
33206;SDS011;19565;46.602;11.534;2022-10-13T08:13:49;2.93;;;2.63;;
33206;SDS011;19565;46.602;11.534;2022-10-13T08:16:18;1.63;;;1.53;;
33206;SDS011;19565;46.602;11.534;2022-10-13T08:18:47;1.40;;;1.40;;
33206;SDS011;19565;46.602;11.534;2022-10-13T08:21:16;3.00;;;2.67;;
33206;SDS011;19565;46.602;11.534;2022-10-13T08:24:05;2.23;;;1.97;;
33206;SDS011;19565;46.602;11.534;2022-10-13T08:26:33;1.43;;;1.40;;
33206;SDS011;19565;46.602;11.534;2022-10-13T08:29:03;1.77;;;1.67;;
33206;SDS011;19565;46.602;11.534;2022-10-13T08:31:49;2.70;;;2.50;;
33206;SDS011;19565;46.602;11.534;2022-10-13T08:34:18;2.10;;;2.00;;
33206;SDS011;19565;46.602;11.534;2022-10-13T08:36:46;2.10;;;2.00;;
33206;SDS011;19565;46.602;11.534;2022-10-13T08:39:20;1.30;;;1.30;;
33206;SDS011;19565;46.602;11.534;2022-10-13T08:41:48;2.90;;;2.77;;
33206;SDS011;19565;46.602;11.534;2022-10-13T08:44:20;1.97;;;1.87;;
33206;SDS011;19565;46.602;11.534;2022-10-13T08:47:14;2.63;;;2.43;;
33206;SDS011;19565;46.602;11.534;2022-10-13T08:49:50;2.20;;;2.10;;
33206;SDS011;19565;46.602;11.534;2022-10-13T08:52:26;2.10;;;2.00;;
33206;SDS011;19565;46.602;11.534;2022-10-13T08:54:55;2.20;;;2.10;;
33206;SDS011;19565;46.602;11.534;2022-10-13T08:57:26;2.53;;;2.33;;
33206;SDS011;19565;46.602;11.534;2022-10-13T08:59:56;3.53;;;3.30;;
33206;SDS011;19565;46.602;11.534;2022-10-13T09:02:24;3.10;;;2.90;;
33206;SDS011;19565;46.602;11.534;2022-10-13T09:04:57;2.60;;;2.40;;
33206;SDS011;19565;46.602;11.534;2022-10-13T09:07:30;4.43;;;4.03;;
33206;SDS011;19565;46.602;11.534;2022-10-13T09:10:02;2.70;;;2.60;;
33206;SDS011;19565;46.602;11.534;2022-10-13T09:12:30;4.33;;;3.93;;
33206;SDS011;19565;46.602;11.534;2022-10-13T09:15:01;3.55;;;3.35;;
33206;SDS011;19565;46.602;11.534;2022-10-13T09:17:31;4.20;;;3.85;;
33206;SDS011;19565;46.602;11.534;2022-10-13T09:20:02;3.85;;;3.65;;
33206;SDS011;19565;46.602;11.534;2022-10-13T09:22:33;5.43;;;4.93;;
33206;SDS011;19565;46.602;11.534;2022-10-13T09:27:47;11.30;;;4.60;;
33206;SDS011;19565;46.602;11.534;2022-10-13T09:30:25;5.47;;;5.18;;
33206;SDS011;19565;46.602;11.534;2022-10-13T09:38:40;11.75;;;11.15;;
33206;SDS011;19565;46.602;11.534;2022-10-13T09:41:29;17.33;;;16.52;;
33206;SDS011;19565;46.602;11.534;2022-10-13T09:44:00;17.85;;;17.00;;
33206;SDS011;19565;46.602;11.534;2022-10-13T09:46:38;20.05;;;19.05;;
33206;SDS011;19565;46.602;11.534;2022-10-13T09:49:24;17.83;;;16.92;;
33206;SDS011;19565;46.602;11.534;2022-10-13T09:52:01;21.60;;;20.60;;
33206;SDS011;19565;46.602;11.534;2022-10-13T09:54:41;21.67;;;20.58;;
33206;SDS011;19565;46.602;11.534;2022-10-13T09:57:14;18.17;;;17.27;;
33206;SDS011;19565;46.602;11.534;2022-10-13T09:59:52;25.05;;;23.85;;
33206;SDS011;19565;46.602;11.534;2022-10-13T10:02:29;14.65;;;13.95;;
33206;SDS011;19565;46.602;11.534;2022-10-13T10:05:05;16.10;;;15.10;;
33206;SDS011;19565;46.602;11.534;2022-10-13T10:07:40;15.05;;;14.25;;
33206;SDS011;19565;46.602;11.534;2022-10-13T10:10:13;15.32;;;14.35;;
33206;SDS011;19565;46.602;11.534;2022-10-13T10:12:51;15.35;;;14.60;;
33206;SDS011;19565;46.602;11.534;2022-10-13T10:15:21;16.05;;;15.23;;
33206;SDS011;19565;46.602;11.534;2022-10-13T10:17:58;15.13;;;14.40;;
33206;SDS011;19565;46.602;11.534;2022-10-13T10:20:50;15.60;;;14.70;;
33206;SDS011;19565;46.602;11.534;2022-10-13T10:23:28;15.90;;;15.00;;
33206;SDS011;19565;46.602;11.534;2022-10-13T10:26:09;16.08;;;15.27;;
33206;SDS011;19565;46.602;11.534;2022-10-13T10:29:00;16.08;;;15.20;;
33206;SDS011;19565;46.602;11.534;2022-10-13T10:31:49;16.02;;;15.23;;
33206;SDS011;19565;46.602;11.534;2022-10-13T10:34:36;16.45;;;15.55;;
33206;SDS011;19565;46.602;11.534;2022-10-13T10:37:12;16.40;;;15.50;;
33206;SDS011;19565;46.602;11.534;2022-10-13T10:39:51;17.38;;;16.48;;
33206;SDS011;19565;46.602;11.534;2022-10-13T10:42:37;17.63;;;16.73;;
33206;SDS011;19565;46.602;11.534;2022-10-13T10:45:25;17.88;;;16.98;;
33206;SDS011;19565;46.602;11.534;2022-10-13T10:47:55;16.75;;;15.85;;
33206;SDS011;19565;46.602;11.534;2022-10-13T10:50:28;16.17;;;15.35;;
33206;SDS011;19565;46.602;11.534;2022-10-13T10:52:58;16.92;;;16.02;;
33206;SDS011;19565;46.602;11.534;2022-10-13T10:55:32;16.75;;;15.85;;
33206;SDS011;19565;46.602;11.534;2022-10-13T10:58:10;23.02;;;21.83;;
33206;SDS011;19565;46.602;11.534;2022-10-13T11:00:50;24.20;;;23.10;;
33206;SDS011;19565;46.602;11.534;2022-10-13T11:03:28;29.70;;;28.40;;
33206;SDS011;19565;46.602;11.534;2022-10-13T11:06:21;28.17;;;26.90;;
33206;SDS011;19565;46.602;11.534;2022-10-13T11:08:59;22.77;;;21.58;;
33206;SDS011;19565;46.602;11.534;2022-10-13T11:11:32;28.98;;;27.60;;
33206;SDS011;19565;46.602;11.534;2022-10-13T11:14:28;27.35;;;26.15;;
33206;SDS011;19565;46.602;11.534;2022-10-13T11:17:00;25.67;;;24.38;;
33206;SDS011;19565;46.602;11.534;2022-10-13T11:19:36;28.52;;;27.27;;
33206;SDS011;19565;46.602;11.534;2022-10-13T11:22:16;25.60;;;24.40;;
33206;SDS011;19565;46.602;11.534;2022-10-13T11:24:48;28.85;;;27.45;;
33206;SDS011;19565;46.602;11.534;2022-10-13T11:27:26;25.63;;;24.52;;
33206;SDS011;19565;46.602;11.534;2022-10-13T11:30:08;20.08;;;19.17;;
33206;SDS011;19565;46.602;11.534;2022-10-13T11:33:32;21.98;;;20.67;;
33206;SDS011;19565;46.602;11.534;2022-10-13T11:39:12;23.30;;;22.10;;
33206;SDS011;19565;46.602;11.534;2022-10-13T11:42:10;25.30;;;23.80;;
33206;SDS011;19565;46.602;11.534;2022-10-13T11:44:53;23.20;;;22.10;;
33206;SDS011;19565;46.602;11.534;2022-10-13T11:47:37;22.20;;;21.20;;
33206;SDS011;19565;46.602;11.534;2022-10-13T11:50:21;20.92;;;19.92;;
33206;SDS011;19565;46.602;11.534;2022-10-13T11:52:59;22.20;;;21.17;;
33206;SDS011;19565;46.602;11.534;2022-10-13T11:55:36;23.63;;;22.52;;
33206;SDS011;19565;46.602;11.534;2022-10-13T11:58:13;25.35;;;24.20;;
33206;SDS011;19565;46.602;11.534;2022-10-13T12:00:52;26.02;;;24.48;;
33206;SDS011;19565;46.602;11.534;2022-10-13T12:03:26;25.05;;;23.90;;
33206;SDS011;19565;46.602;11.534;2022-10-13T12:05:56;26.02;;;24.83;;
33206;SDS011;19565;46.602;11.534;2022-10-13T12:08:31;26.65;;;25.00;;
33206;SDS011;19565;46.602;11.534;2022-10-13T12:11:01;25.95;;;24.75;;
33206;SDS011;19565;46.602;11.534;2022-10-13T12:13:33;23.38;;;22.27;;
33206;SDS011;19565;46.602;11.534;2022-10-13T12:16:03;22.95;;;21.80;;
33206;SDS011;19565;46.602;11.534;2022-10-13T12:18:35;27.45;;;26.17;;
33206;SDS011;19565;46.602;11.534;2022-10-13T12:21:08;24.45;;;23.33;;
33206;SDS011;19565;46.602;11.534;2022-10-13T12:23:38;25.15;;;23.75;;
33206;SDS011;19565;46.602;11.534;2022-10-13T12:26:06;27.55;;;26.20;;
33206;SDS011;19565;46.602;11.534;2022-10-13T12:28:45;27.58;;;26.30;;
33206;SDS011;19565;46.602;11.534;2022-10-13T12:31:16;25.92;;;24.63;;
33206;SDS011;19565;46.602;11.534;2022-10-13T12:33:52;21.73;;;20.73;;
33206;SDS011;19565;46.602;11.534;2022-10-13T12:36:21;23.17;;;22.08;;
33206;SDS011;19565;46.602;11.534;2022-10-13T12:38:57;22.75;;;21.42;;
33206;SDS011;19565;46.602;11.534;2022-10-13T12:41:27;22.20;;;21.20;;
33206;SDS011;19565;46.602;11.534;2022-10-13T12:43:58;25.83;;;24.73;;
33206;SDS011;19565;46.602;11.534;2022-10-13T12:46:35;22.10;;;21.10;;
33206;SDS011;19565;46.602;11.534;2022-10-13T12:49:05;23.90;;;22.80;;
33206;SDS011;19565;46.602;11.534;2022-10-13T12:51:34;26.00;;;24.80;;
33206;SDS011;19565;46.602;11.534;2022-10-13T12:54:05;25.15;;;24.05;;
33206;SDS011;19565;46.602;11.534;2022-10-13T12:56:34;25.30;;;24.00;;
33206;SDS011;19565;46.602;11.534;2022-10-13T12:59:02;22.90;;;21.80;;
33206;SDS011;19565;46.602;11.534;2022-10-13T13:01:31;23.35;;;22.25;;
33206;SDS011;19565;46.602;11.534;2022-10-13T13:04:01;24.95;;;23.75;;
33206;SDS011;19565;46.602;11.534;2022-10-13T13:06:52;25.08;;;23.90;;
33206;SDS011;19565;46.602;11.534;2022-10-13T13:09:25;23.50;;;22.40;;
33206;SDS011;19565;46.602;11.534;2022-10-13T13:12:02;19.63;;;18.73;;
33206;SDS011;19565;46.602;11.534;2022-10-13T13:14:46;24.65;;;23.55;;
33206;SDS011;19565;46.602;11.534;2022-10-13T13:17:20;23.27;;;22.17;;
33206;SDS011;19565;46.602;11.534;2022-10-13T13:20:20;25.10;;;23.90;;
33206;SDS011;19565;46.602;11.534;2022-10-13T13:22:52;25.17;;;23.90;;
33206;SDS011;19565;46.602;11.534;2022-10-13T13:25:21;24.13;;;22.98;;
33206;SDS011;19565;46.602;11.534;2022-10-13T13:27:49;47.80;;;45.80;;
33206;SDS011;19565;46.602;11.534;2022-10-13T13:30:18;24.08;;;22.98;;
33206;SDS011;19565;46.602;11.534;2022-10-13T13:32:47;22.73;;;21.48;;
33206;SDS011;19565;46.602;11.534;2022-10-13T13:35:15;21.52;;;20.52;;
33206;SDS011;19565;46.602;11.534;2022-10-13T13:37:44;21.10;;;20.10;;
33206;SDS011;19565;46.602;11.534;2022-10-13T13:40:19;26.70;;;24.77;;
33206;SDS011;19565;46.602;11.534;2022-10-13T13:42:48;21.08;;;20.08;;
33206;SDS011;19565;46.602;11.534;2022-10-13T13:45:17;22.10;;;21.08;;
33206;SDS011;19565;46.602;11.534;2022-10-13T13:47:47;23.60;;;22.48;;
33206;SDS011;19565;46.602;11.534;2022-10-13T13:50:15;25.15;;;23.48;;
33206;SDS011;19565;46.602;11.534;2022-10-13T13:52:45;23.55;;;22.45;;
33206;SDS011;19565;46.602;11.534;2022-10-13T13:55:13;24.50;;;23.40;;
33206;SDS011;19565;46.602;11.534;2022-10-13T13:57:43;23.15;;;22.05;;
33206;SDS011;19565;46.602;11.534;2022-10-13T14:00:13;22.92;;;21.83;;
33206;SDS011;19565;46.602;11.534;2022-10-13T14:02:42;26.00;;;24.50;;
33206;SDS011;19565;46.602;11.534;2022-10-13T14:05:11;25.83;;;24.60;;
33206;SDS011;19565;46.602;11.534;2022-10-13T14:07:39;22.92;;;21.83;;
33206;SDS011;19565;46.602;11.534;2022-10-13T14:10:08;24.50;;;23.30;;
33206;SDS011;19565;46.602;11.534;2022-10-13T14:12:36;20.33;;;19.20;;
33206;SDS011;19565;46.602;11.534;2022-10-13T14:15:07;36.90;;;35.30;;
33206;SDS011;19565;46.602;11.534;2022-10-13T14:17:35;23.60;;;22.50;;
33206;SDS011;19565;46.602;11.534;2022-10-13T14:20:04;28.75;;;27.40;;
33206;SDS011;19565;46.602;11.534;2022-10-13T14:22:33;22.45;;;21.35;;
33206;SDS011;19565;46.602;11.534;2022-10-13T14:25:04;23.48;;;22.38;;
33206;SDS011;19565;46.602;11.534;2022-10-13T14:27:33;26.33;;;25.05;;
33206;SDS011;19565;46.602;11.534;2022-10-13T14:30:02;28.42;;;27.08;;
33206;SDS011;19565;46.602;11.534;2022-10-13T14:32:32;25.40;;;24.17;;
33206;SDS011;19565;46.602;11.534;2022-10-13T14:35:00;23.58;;;22.38;;
33206;SDS011;19565;46.602;11.534;2022-10-13T14:37:28;23.30;;;22.15;;
33206;SDS011;19565;46.602;11.534;2022-10-13T14:39:59;27.02;;;24.58;;
33206;SDS011;19565;46.602;11.534;2022-10-13T14:42:27;24.42;;;23.23;;
33206;SDS011;19565;46.602;11.534;2022-10-13T14:44:55;22.33;;;21.20;;
33206;SDS011;19565;46.602;11.534;2022-10-13T14:47:23;18.30;;;17.40;;
33206;SDS011;19565;46.602;11.534;2022-10-13T14:49:54;19.13;;;18.13;;
33206;SDS011;19565;46.602;11.534;2022-10-13T14:52:22;19.05;;;18.05;;
33206;SDS011;19565;46.602;11.534;2022-10-13T14:54:50;17.90;;;17.00;;
33206;SDS011;19565;46.602;11.534;2022-10-13T14:57:18;18.27;;;17.38;;
33206;SDS011;19565;46.602;11.534;2022-10-13T14:59:47;18.33;;;17.42;;
33206;SDS011;19565;46.602;11.534;2022-10-13T15:02:15;19.10;;;18.20;;
33206;SDS011;19565;46.602;11.534;2022-10-13T15:04:43;16.90;;;16.10;;
33206;SDS011;19565;46.602;11.534;2022-10-13T15:07:12;18.80;;;17.83;;
33206;SDS011;19565;46.602;11.534;2022-10-13T15:09:40;17.45;;;16.55;;
33206;SDS011;19565;46.602;11.534;2022-10-13T15:12:18;18.83;;;17.92;;